Terminal Aerodrome Forecast
Issued by NWS

Home | Current Version | Previous Version | Text Only | Print | Product List | Glossary On
Versions: 1 2 3 4 5 6 7 8 9 10 11 12 13 14 15 16 17 18 19 20 21 22 23 24 25 26 27 28 29 30 31 32 33 34 35 36 37 38 39 40 41 42 43 44 45 46 47 48
000
FTUS43 KMKX 030537
TAFUES
TAF
KUES 030537Z 0306/0406 16005KT P6SM BKN080
     FM031100 16009KT 3SM -SN SCT015 OVC025
     FM031500 16014KT 2SM -SNPL OVC008
     FM031800 18014KT 2SM -FZRAPL OVC003
     FM032000 22014KT 3SM -FZRA OVC008
     FM032200 23014KT P6SM OVC015
     FM040000 26013KT P6SM OVC025
     FM040200 29012KT P6SM OVC040=

USA.gov is the U.S. government's official web portal to all federal, state and local government web resources and services.